createdAt,value
2024-02-18T11:00:02.432Z,1.40
2024-02-18T11:05:08.462Z,2.70
2024-02-18T11:10:12.640Z,1.90
2024-02-18T11:15:16.194Z,13.20
2024-02-18T11:24:59.441Z,3.60
2024-02-18T11:30:02.735Z,2.30
2024-02-18T11:35:13.349Z,1.20
2024-02-18T11:40:20.626Z,2.00
2024-02-18T11:45:25.883Z,1.90
2024-02-18T11:50:28.909Z,1.50
2024-02-18T11:55:31.561Z,4.50
2024-02-18T12:00:34.314Z,2.10
2024-02-18T12:05:41.132Z,2.50
2024-02-18T12:10:43.847Z,2.90
2024-02-18T12:15:47.376Z,3.20
2024-02-18T12:20:51.295Z,5.50
2024-02-18T12:25:58.440Z,2.30
2024-02-18T12:31:02.224Z,2.70
2024-02-18T12:36:06.694Z,2.00
2024-02-18T12:41:09.393Z,2.90
2024-02-18T12:46:13.005Z,2.50
2024-02-18T12:51:16.981Z,3.10
2024-02-18T12:56:20.523Z,2.00
2024-02-18T13:01:23.994Z,2.40
2024-02-18T13:06:27.171Z,3.00
2024-02-18T13:11:37.008Z,1.80
2024-02-18T13:16:39.837Z,4.10
2024-02-18T13:21:49.960Z,5.90
2024-02-18T13:27:01.164Z,1.70
2024-02-18T13:32:04.226Z,3.70
2024-02-18T13:37:07.952Z,2.70
2024-02-18T13:42:10.849Z,4.80
2024-02-18T13:47:16.378Z,3.40
2024-02-18T13:52:19.223Z,1.70
2024-02-18T13:57:21.839Z,6.00
2024-02-18T14:02:24.756Z,3.90
2024-02-18T14:07:31.626Z,2.40
2024-02-18T14:12:34.376Z,3.00
2024-02-18T14:17:40.957Z,2.80
2024-02-18T14:22:43.775Z,3.00
2024-02-18T14:27:46.741Z,3.70
2024-02-18T14:32:49.448Z,2.10
2024-02-18T14:37:53.377Z,3.10
2024-02-18T14:43:03.613Z,3.70
2024-02-18T14:48:11.566Z,7.60
2024-02-18T14:53:16.200Z,4.10
2024-02-18T14:58:19.512Z,2.70
2024-02-18T15:03:23.138Z,4.30
2024-02-18T15:08:27.308Z,4.50
2024-02-18T15:13:30.205Z,2.40
2024-02-18T15:18:34.704Z,3.20
2024-02-18T15:23:39.475Z,3.40
2024-02-18T15:34:28.477Z,6.30
2024-02-18T15:39:35.408Z,6.00
2024-02-18T15:44:44.565Z,4.90
2024-02-18T15:50:07.238Z,11.10
2024-02-18T15:55:45.319Z,3.50
2024-02-18T16:01:44.699Z,3.50
2024-02-18T16:07:25.292Z,5.00
2024-02-18T16:12:38.907Z,5.60
2024-02-18T16:24:00.426Z,7.90
2024-02-18T16:28:28.876Z,8.10
2024-02-18T16:33:35.028Z,6.40
2024-02-18T16:38:56.808Z,6.30
2024-02-18T16:44:46.341Z,7.50
2024-02-18T16:50:25.447Z,9.80
2024-02-18T16:56:16.493Z,5.80
2024-02-18T17:01:22.086Z,4.30
2024-02-18T17:06:35.206Z,5.60
2024-02-18T17:11:50.580Z,6.40
2024-02-18T17:17:30.049Z,4.80
2024-02-18T17:22:44.970Z,4.20
2024-02-18T17:27:58.786Z,3.50
2024-02-18T17:33:07.247Z,4.50
2024-02-18T17:38:10.543Z,6.00
2024-02-18T17:43:14.161Z,4.50
2024-02-18T17:48:26.841Z,4.10
2024-02-18T17:53:32.484Z,5.40
2024-02-18T17:58:35.505Z,6.90
2024-02-18T18:03:38.361Z,14.40
2024-02-18T18:08:41.622Z,14.80
2024-02-18T18:13:44.279Z,16.90
2024-02-18T18:18:50.683Z,15.70
2024-02-18T18:23:57.267Z,13.00
2024-02-18T18:29:01.899Z,18.70
2024-02-18T18:34:04.742Z,10.90
2024-02-18T18:39:09.926Z,10.70
2024-02-18T18:44:13.047Z,8.90
2024-02-18T18:49:16.112Z,12.00
2024-02-18T18:54:19.060Z,8.50
2024-02-18T18:59:30.171Z,10.80
2024-02-18T19:04:33.647Z,24.30
2024-02-18T19:09:36.420Z,27.00
2024-02-18T19:14:39.664Z,28.70
2024-02-18T19:19:44.791Z,12.30
2024-02-18T19:24:51.795Z,12.50
2024-02-18T19:29:56.933Z,27.00
2024-02-18T19:34:59.827Z,35.90
2024-02-18T19:40:03.120Z,9.30
2024-02-18T19:45:06.748Z,17.40
2024-02-18T19:50:10.857Z,14.40
2024-02-18T19:55:14.529Z,41.80
2024-02-18T20:00:18.363Z,12.90
2024-02-18T20:05:21.232Z,33.10
2024-02-18T20:10:25.321Z,17.20
2024-02-18T20:15:28.222Z,8.50
2024-02-18T20:20:30.940Z,9.30
2024-02-18T20:25:33.665Z,7.60
2024-02-18T20:30:36.542Z,6.60
2024-02-18T20:35:41.771Z,8.50
2024-02-18T20:45:51.449Z,6.30
2024-02-18T20:50:55.665Z,8.00
2024-02-18T20:56:01.288Z,8.80
2024-02-18T21:01:04.980Z,8.20
2024-02-18T21:06:09.064Z,8.40
2024-02-18T21:11:12.297Z,9.20
2024-02-18T21:16:15.467Z,6.60
2024-02-18T21:21:19.239Z,7.00
2024-02-18T21:26:22.540Z,6.40
2024-02-18T21:31:25.967Z,9.30
2024-02-18T21:36:31.684Z,9.70
2024-02-18T21:41:38.210Z,10.80
2024-02-18T21:46:46.280Z,10.60
2024-02-18T21:51:50.185Z,35.70
2024-02-18T21:56:53.782Z,55.80
2024-02-18T22:01:57.365Z,26.10
2024-02-18T22:07:12.765Z,19.30
2024-02-18T22:12:20.094Z,12.30
2024-02-18T22:17:23.121Z,17.00
2024-02-18T22:22:25.895Z,39.20
2024-02-18T22:27:29.446Z,27.40
2024-02-18T22:32:32.119Z,29.00
2024-02-18T22:37:35.608Z,16.80
2024-02-18T22:42:38.705Z,12.20
2024-02-18T22:47:41.440Z,13.30
2024-02-18T22:52:47.243Z,12.10
2024-02-18T22:57:50.168Z,19.20
2024-02-18T23:02:53.736Z,9.70
2024-02-18T23:07:56.629Z,14.10
2024-02-18T23:12:59.535Z,13.50
2024-02-18T23:18:02.608Z,8.10
2024-02-18T23:23:06.457Z,7.70
2024-02-18T23:28:09.761Z,6.60
2024-02-18T23:33:13.369Z,6.80
2024-02-18T23:38:17.333Z,10.30
2024-02-18T23:43:23.310Z,24.80
2024-02-18T23:48:26.389Z,7.70
2024-02-18T23:53:30.016Z,4.70
2024-02-18T23:58:33.003Z,4.00
